Aviation Digital Data Service (ADDS)

Output produced by METARs form (0242 UTC 26 June 2016)
found at http://www.aviationweather.gov/adds/metars/
 
KFIG 260154Z AUTO 20003KT 10SM CLR 22/16 A3020 RMK AO2 SLP219 T02220156
KFIG 260054Z AUTO 18003KT 10SM CLR 23/16 A3019 RMK AO2 SLP216 T02280161
KFIG 252354Z AUTO 18003KT 10SM CLR 25/16 A3019 RMK AO2 SLP217 T02500161 10289 20250 53001
KFIG 252254Z AUTO 18006KT 10SM CLR 27/16 A3018 RMK AO2 SLP213 T02670156
KFIG 252154Z AUTO VRB04KT 10SM FEW060 26/14 A3019 RMK AO2 SLP215 T02610144
KFIG 252054Z AUTO VRB04KT 10SM CLR 28/14 A3019 RMK AO2 SLP215 T02780144 58004
KFIG 251954Z AUTO VRB04KT 10SM SCT070 27/14 A3019 RMK AO2 SLP216 T02720144
KFIG 251854Z AUTO VRB06KT 10SM CLR 28/15 A3020 RMK AO2 SLP220 T02780150
KFIG 251754Z AUTO 09006KT 10SM CLR 28/15 A3020 RMK AO2 SLP219 T02780150 10283 20161 58008
KFIG 251654Z AUTO 09006KT 10SM BKN039 BKN050 27/15 A3022 RMK AO2 SLP223 T02670150
KFIG 251554Z AUTO 00000KT 10SM FEW030 24/16 A3023 RMK AO2 SLP228 T02390161
KFIG 251454Z AUTO VRB05KT 10SM CLR 24/15 A3023 RMK AO2 SLP227 T02390150 50004
KFIG 251354Z AUTO 20004KT 10SM FEW055 21/16 A3023 RMK AO2 SLP230 T02110156
KFIG 251254Z AUTO 00000KT 10SM CLR 20/16 A3023 RMK AO2 SLP228 T02000156
KFIG 251224Z AUTO VRB03KT 10SM SCT002 SCT047 18/15 A3022 RMK AO2 T01780150
KFIG 251216Z AUTO 03004KT 8SM BKN002 17/14 A3022 RMK AO2 T01720144
KFIG 251208Z AUTO 01004KT 2SM BR BKN002 17/15 A3022 RMK AO2 T01670150
KFIG 251154Z AUTO 02004KT 1/2SM FG VV002 16/14 A3021 RMK AO2 SLP223 T01610144 10161 20133 51011
KFIG 251152Z AUTO 02004KT 1/2SM FG VV002 16/14 A3021 RMK AO2
KFIG 251113Z AUTO 36003KT 1/4SM FG VV002 15/14 A3020 RMK AO2 T01500139
KFIG 251106Z AUTO 36003KT 1/2SM FG VV002 14/13 A3020 RMK AO2 T01440133
KFIG 251054Z AUTO 02005KT 1SM BR VV002 14/13 A3019 RMK AO2 SLP218 T01440133
KFIG 251046Z AUTO 03004KT 1 3/4SM BR OVC002 14/13 A3019 RMK AO2 T01440133
KFIG 251034Z AUTO 02003KT 2SM BR OVC002 14/13 A3019 RMK AO2 T01440128
KFIG 251020Z AUTO 34003KT 3SM BR BKN002 OVC050 13/12 A3019 RMK AO2 T01330122
KFIG 250954Z AUTO 01004KT 3SM BR BKN048 13/12 A3018 RMK AO2 SLP212 T01330122
KFIG 250854Z AUTO 36003KT 6SM BR CLR 14/12 A3017 RMK AO2 SLP209 T01390122 53007
KFIG 250823Z AUTO 36003KT 3SM BR SCT003 13/12 A3016 RMK AO2 T01330122
KFIG 250814Z AUTO 36007KT 1 1/4SM BR SCT003 14/12 A3016 RMK AO2 T01390122
KFIG 250809Z AUTO 36007KT 3/4SM BR VV003 13/12 A3016 RMK AO2 T01330122
KFIG 250805Z AUTO 36006KT 1SM BR VV002 14/12 A3016 RMK AO2 T01390122
KFIG 250802Z AUTO 35006KT 2 1/2SM BR FEW002 14/13 A3016 RMK AO2 T01390128
KFIG 250754Z AUTO 02006KT 9SM CLR 14/13 A3015 RMK AO2 SLP205 T01440128
KFIG 250654Z AUTO 00000KT 7SM CLR 14/13 A3014 RMK AO2 SLP201 T01440133
KFIG 250554Z AUTO 35007KT 10SM CLR 16/14 A3015 RMK AO2 SLP203 T01560139 10233 20156 51008
KFIG 250354Z AUTO 34005KT 10SM BKN044 OVC070 17/14 A3013 RMK AO2 SLP198 T01720144
KFIG 250254Z AUTO 01003KT 10SM BKN070 18/14 A3012 RMK AO2 SLP195 T01780144 51009
KFIG 250154Z AUTO 36005KT 10SM SCT075 19/15 A3012 RMK AO2 SLP194 T01890150
KFIG 250054Z AUTO 03003KT 10SM CLR 21/15 A3010 RMK AO2 SLP187 T02110150
KFIG 242354Z AUTO 08004KT 10SM CLR 23/15 A3010 RMK AO2 SLP183 T02330150 10256 20211 53004
KFIG 242254Z AUTO 08007KT 10SM CLR 24/14 A3009 RMK AO2 SLP181 T02440144
KFIG 242154Z AUTO 06007KT 10SM CLR 25/14 A3008 RMK AO2 SLP180 T02500144
KFIG 242054Z AUTO 09007KT 10SM CLR 25/14 A3008 RMK AO2 SLP180 T02500144 58004
KFIG 241954Z AUTO VRB06KT 10SM CLR 24/13 A3010 RMK AO2 SLP185 T02390133
KFIG 241854Z AUTO 04010KT 10SM FEW100 24/12 A3010 RMK AO2 SLP184 T02390122
KFIG 241754Z AUTO 08004KT 10SM OVC048 21/12 A3010 RMK AO2 SLP185 T02110117 10217 20156 50001
KFIG 241654Z AUTO 09008KT 10SM OVC060 21/11 A3010 RMK AO2 SLP188 T02110111
KFIG 241554Z AUTO 05007KT 10SM OVC060 21/11 A3010 RMK AO2 SLP187 T02110106
KFIG 241454Z AUTO VRB05KT 10SM SCT043 BKN050 OVC080 19/10 A3009 RMK AO2 SLP184 T01890100 51010